Terminal Aerodrome Forecast
Issued by NWS

Home | Current Version | Previous Version | Text Only | Print | Product List | Glossary On
Versions: 1 2 3 4 5 6 7 8 9 10 11 12
000
FTUS43 KEAX 012300
TAFMKC
TAF
KMKC 012323Z 0200/0224 32013G22KT 6SM -SN OVC020
     FM020400 31010KT P6SM BKN025
     FM021400 21006KT P6SM FEW035 SCT100=

USA.gov is the U.S. government's official web portal to all federal, state and local government web resources and services.